createdAt,value
2023-05-10T00:00:30.250Z,3.10
2023-05-10T00:02:57.847Z,2.97
2023-05-10T00:05:25.756Z,2.90
2023-05-10T00:07:53.206Z,3.17
2023-05-10T00:10:20.710Z,3.00
2023-05-10T00:12:48.475Z,3.20
2023-05-10T00:15:15.956Z,3.38
2023-05-10T00:17:43.825Z,3.42
2023-05-10T00:20:11.968Z,3.42
2023-05-10T00:22:39.726Z,3.30
2023-05-10T00:25:08.120Z,3.00
2023-05-10T00:27:35.861Z,3.28
2023-05-10T00:30:03.573Z,3.20
2023-05-10T00:32:31.996Z,3.28
2023-05-10T00:34:59.559Z,3.22
2023-05-10T00:37:28.292Z,3.00
2023-05-10T00:39:56.524Z,3.22
2023-05-10T00:42:23.975Z,3.28
2023-05-10T00:44:53.524Z,2.67
2023-05-10T00:47:21.200Z,2.88
2023-05-10T00:49:48.691Z,3.30
2023-05-10T00:52:16.287Z,2.85
2023-05-10T00:54:43.891Z,2.75
2023-05-10T00:57:12.314Z,2.90
2023-05-10T00:59:39.836Z,2.80
2023-05-10T01:02:07.887Z,2.60
2023-05-10T01:04:36.572Z,2.83
2023-05-10T01:07:04.724Z,2.80
2023-05-10T01:09:32.378Z,2.80
2023-05-10T01:12:00.171Z,2.88
2023-05-10T01:14:27.862Z,3.03
2023-05-10T01:16:55.609Z,2.78
2023-05-10T01:19:26.527Z,2.47
2023-05-10T01:22:31.482Z,2.90
2023-05-10T01:24:58.882Z,2.55
2023-05-10T01:27:52.564Z,2.97
2023-05-10T01:30:39.715Z,2.78
2023-05-10T01:33:20.681Z,2.67
2023-05-10T01:36:09.835Z,2.80
2023-05-10T01:38:48.132Z,2.85
2023-05-10T01:41:19.763Z,2.85
2023-05-10T01:43:59.698Z,3.00
2023-05-10T01:46:37.171Z,2.70
2023-05-10T01:49:28.294Z,2.70
2023-05-10T01:51:58.110Z,3.33
2023-05-10T01:54:26.865Z,3.45
2023-05-10T01:56:59.943Z,2.63
2023-05-10T01:59:30.755Z,3.38
2023-05-10T02:01:59.107Z,3.45
2023-05-10T02:04:26.958Z,3.53
2023-05-10T02:06:54.840Z,3.53
2023-05-10T02:09:22.756Z,4.18
2023-05-10T02:11:52.104Z,3.38
2023-05-10T02:14:28.019Z,9.85
2023-05-10T02:16:55.496Z,10.32
2023-05-10T02:19:23.388Z,9.98
2023-05-10T02:21:52.337Z,11.75
2023-05-10T02:24:19.796Z,11.82
2023-05-10T02:26:47.418Z,11.30
2023-05-10T02:29:15.618Z,11.25
2023-05-10T02:31:44.672Z,10.73
2023-05-10T02:34:12.392Z,10.45
2023-05-10T02:36:40.184Z,9.80
2023-05-10T02:39:11.078Z,9.93
2023-05-10T02:41:38.748Z,11.10
2023-05-10T02:44:06.489Z,10.77
2023-05-10T02:46:34.657Z,11.07
2023-05-10T02:49:03.731Z,11.27
2023-05-10T02:51:34.776Z,11.00
2023-05-10T02:54:09.708Z,9.93
2023-05-10T02:56:37.459Z,9.63
2023-05-10T02:59:06.014Z,9.45
2023-05-10T03:01:33.644Z,9.02
2023-05-10T03:04:01.318Z,12.27
2023-05-10T03:06:29.718Z,12.50
2023-05-10T03:08:57.668Z,8.95
2023-05-10T03:11:40.925Z,10.55
2023-05-10T03:14:22.100Z,8.57
2023-05-10T03:17:09.583Z,7.75
2023-05-10T03:19:55.300Z,7.53
2023-05-10T03:22:32.442Z,5.57
2023-05-10T03:24:59.988Z,5.10
2023-05-10T03:27:30.797Z,5.55
2023-05-10T03:29:58.230Z,5.10
2023-05-10T03:32:25.758Z,5.25
2023-05-10T03:34:53.311Z,4.50
2023-05-10T03:37:20.855Z,3.95
2023-05-10T03:39:48.667Z,4.03
2023-05-10T03:42:16.340Z,3.78
2023-05-10T03:44:43.816Z,4.40
2023-05-10T03:47:11.397Z,4.22
2023-05-10T03:49:39.387Z,3.58
2023-05-10T03:52:07.565Z,4.00
2023-05-10T03:54:35.912Z,3.33
2023-05-10T03:57:04.034Z,3.65
2023-05-10T03:59:32.520Z,3.60
2023-05-10T04:02:00.348Z,3.47
2023-05-10T04:04:28.395Z,3.83
2023-05-10T04:06:55.986Z,3.60
2023-05-10T04:09:23.637Z,3.75
2023-05-10T04:11:51.334Z,3.13
2023-05-10T04:14:18.870Z,3.33
2023-05-10T04:16:46.678Z,3.05
2023-05-10T04:19:14.271Z,2.65
2023-05-10T04:21:41.802Z,3.55
2023-05-10T04:24:09.522Z,2.78
2023-05-10T04:26:37.099Z,3.47
2023-05-10T04:29:04.926Z,3.03
2023-05-10T04:31:32.558Z,3.00
2023-05-10T04:34:00.364Z,2.10
2023-05-10T04:36:28.804Z,3.00
2023-05-10T04:38:56.227Z,2.25
2023-05-10T04:41:24.160Z,2.03
2023-05-10T04:43:51.655Z,2.17
2023-05-10T04:46:19.220Z,2.70
2023-05-10T04:48:46.763Z,2.58
2023-05-10T04:51:14.273Z,2.63
2023-05-10T04:53:44.649Z,2.35
2023-05-10T04:56:17.089Z,2.50
2023-05-10T04:58:45.106Z,1.90
2023-05-10T05:01:12.753Z,1.80
2023-05-10T05:03:40.527Z,2.10
2023-05-10T05:06:08.310Z,1.77
2023-05-10T05:08:36.143Z,2.17
2023-05-10T05:11:03.946Z,2.50
2023-05-10T05:13:33.618Z,2.03
2023-05-10T05:16:02.739Z,1.40
2023-05-10T05:18:30.587Z,1.90
2023-05-10T05:20:58.840Z,2.08
2023-05-10T05:23:26.831Z,2.53
2023-05-10T05:25:55.010Z,2.15
2023-05-10T05:28:22.865Z,2.20
2023-05-10T05:30:50.357Z,2.42
2023-05-10T05:33:18.477Z,1.95
2023-05-10T05:35:51.656Z,2.20
2023-05-10T05:38:19.248Z,2.30
2023-05-10T05:40:46.980Z,2.53
2023-05-10T05:43:14.600Z,2.63
2023-05-10T05:45:42.332Z,2.30
2023-05-10T05:48:10.456Z,2.33
2023-05-10T05:50:37.934Z,2.05
2023-05-10T05:53:05.419Z,1.98
2023-05-10T05:55:33.066Z,1.63
2023-05-10T05:58:00.510Z,1.50
2023-05-10T06:00:28.094Z,1.42
2023-05-10T06:02:55.634Z,1.40
2023-05-10T06:05:23.382Z,1.50
2023-05-10T06:07:50.836Z,1.13
2023-05-10T06:10:18.323Z,1.45
2023-05-10T06:12:46.154Z,1.15
2023-05-10T06:15:13.727Z,1.50
2023-05-10T06:17:41.534Z,1.17
2023-05-10T06:20:09.839Z,1.17
2023-05-10T06:22:37.898Z,1.88
2023-05-10T06:25:05.664Z,1.55
2023-05-10T06:27:33.521Z,1.70
2023-05-10T06:30:12.402Z,2.10
2023-05-10T06:32:41.951Z,1.60
2023-05-10T06:35:10.116Z,1.50
2023-05-10T06:37:38.030Z,1.35
2023-05-10T06:40:07.572Z,1.48
2023-05-10T06:42:36.079Z,1.90
2023-05-10T06:45:04.786Z,1.55
2023-05-10T06:47:32.826Z,1.50
2023-05-10T06:50:00.669Z,1.70
2023-05-10T06:52:28.264Z,1.63
2023-05-10T06:54:55.744Z,1.92
2023-05-10T06:57:31.300Z,1.85
2023-05-10T07:00:05.254Z,1.65
2023-05-10T07:02:33.397Z,2.08
2023-05-10T07:05:03.109Z,2.20
2023-05-10T07:07:32.457Z,1.45
2023-05-10T07:10:00.328Z,1.98
2023-05-10T07:12:27.903Z,1.67
2023-05-10T07:14:55.470Z,1.80
2023-05-10T07:17:23.259Z,1.73
2023-05-10T07:19:51.357Z,1.65
2023-05-10T07:22:19.011Z,1.25
2023-05-10T07:24:47.260Z,1.35
2023-05-10T07:27:15.076Z,1.50
2023-05-10T07:29:43.227Z,1.52
2023-05-10T07:32:10.968Z,1.60
2023-05-10T07:34:38.583Z,1.42
2023-05-10T07:37:07.334Z,1.50
2023-05-10T07:39:34.841Z,1.98
2023-05-10T07:42:02.396Z,1.58
2023-05-10T07:44:30.194Z,2.15
2023-05-10T07:46:57.762Z,1.77
2023-05-10T07:49:25.441Z,1.85
2023-05-10T07:51:52.982Z,2.00
2023-05-10T07:54:20.576Z,1.80
2023-05-10T07:56:48.952Z,1.70
2023-05-10T07:59:17.316Z,4.30
2023-05-10T08:01:44.943Z,2.70
2023-05-10T08:04:12.961Z,2.47
2023-05-10T08:06:41.338Z,1.80
2023-05-10T08:09:09.785Z,1.80
2023-05-10T08:11:37.725Z,1.83
2023-05-10T08:14:05.480Z,1.92
2023-05-10T08:16:33.561Z,1.85
2023-05-10T08:19:01.412Z,2.60
2023-05-10T08:21:29.385Z,1.80
2023-05-10T08:23:57.014Z,1.90
2023-05-10T08:26:24.627Z,1.55
2023-05-10T08:28:52.139Z,1.75
2023-05-10T08:31:19.750Z,1.75
2023-05-10T08:33:47.573Z,1.50
2023-05-10T08:36:20.735Z,2.33
2023-05-10T08:38:52.113Z,1.70
2023-05-10T08:41:22.104Z,1.58
2023-05-10T08:43:54.021Z,1.75
2023-05-10T08:46:22.476Z,1.92
2023-05-10T08:48:51.438Z,2.08
2023-05-10T08:51:20.623Z,2.13
2023-05-10T08:53:48.134Z,1.83
2023-05-10T08:56:16.976Z,1.77
2023-05-10T08:58:44.964Z,2.00
2023-05-10T09:01:12.517Z,1.90
2023-05-10T09:03:40.261Z,1.88
2023-05-10T09:06:08.018Z,2.20
2023-05-10T09:08:35.841Z,1.35
2023-05-10T09:11:03.922Z,1.85
2023-05-10T09:13:31.457Z,1.60
2023-05-10T09:16:06.973Z,1.70
2023-05-10T09:18:41.637Z,2.53
2023-05-10T09:21:09.444Z,1.88
2023-05-10T09:23:37.829Z,1.50
2023-05-10T09:26:08.485Z,1.70
2023-05-10T09:28:51.160Z,1.70
2023-05-10T09:31:18.660Z,1.35
2023-05-10T09:33:49.430Z,1.85
2023-05-10T09:36:17.291Z,1.42
2023-05-10T09:38:55.309Z,2.15
2023-05-10T09:41:23.673Z,2.05
2023-05-10T09:43:51.186Z,2.10
2023-05-10T09:46:18.777Z,2.50
2023-05-10T09:48:47.368Z,2.13
2023-05-10T09:51:21.654Z,2.50
2023-05-10T09:53:51.536Z,2.80
2023-05-10T09:56:40.043Z,1.60
2023-05-10T09:59:11.519Z,1.27
2023-05-10T10:01:39.670Z,1.38
2023-05-10T10:04:08.550Z,1.40
2023-05-10T10:06:40.018Z,1.92
2023-05-10T10:09:08.080Z,2.22
2023-05-10T10:11:36.924Z,1.75
2023-05-10T10:14:04.546Z,2.13
2023-05-10T10:16:32.774Z,1.45
2023-05-10T10:19:01.017Z,1.60
2023-05-10T10:21:28.669Z,1.92
2023-05-10T10:23:56.324Z,2.60
2023-05-10T10:26:23.853Z,2.40
2023-05-10T10:29:10.482Z,2.10
2023-05-10T10:31:41.964Z,2.40
2023-05-10T10:34:09.406Z,1.90
2023-05-10T10:36:48.120Z,2.20
2023-05-10T10:39:15.729Z,1.98
2023-05-10T10:41:57.774Z,1.85
2023-05-10T10:44:38.050Z,2.10
2023-05-10T10:47:12.636Z,1.85
2023-05-10T10:49:53.282Z,2.20
2023-05-10T10:52:34.586Z,2.03
2023-05-10T10:55:02.504Z,1.85
2023-05-10T10:57:47.203Z,1.90
2023-05-10T11:00:37.153Z,1.90
2023-05-10T11:03:15.741Z,1.65
2023-05-10T11:05:47.504Z,1.70
2023-05-10T11:08:29.013Z,1.50
2023-05-10T11:11:10.195Z,1.83
2023-05-10T11:13:46.763Z,1.55
2023-05-10T11:16:19.798Z,2.42
2023-05-10T11:19:05.090Z,1.83
2023-05-10T11:21:33.785Z,1.80
2023-05-10T11:24:01.964Z,1.85
2023-05-10T11:26:34.492Z,2.22
2023-05-10T11:29:03.036Z,2.08
2023-05-10T11:31:30.972Z,2.10
2023-05-10T11:33:59.876Z,1.80
2023-05-10T11:36:29.212Z,1.63
2023-05-10T11:38:57.461Z,1.85
2023-05-10T11:41:25.541Z,1.77
2023-05-10T11:43:54.123Z,1.63
2023-05-10T11:46:23.040Z,1.42
2023-05-10T11:48:52.317Z,1.40
2023-05-10T11:51:24.450Z,1.25
2023-05-10T11:53:56.228Z,1.10
2023-05-10T11:56:24.682Z,1.00
2023-05-10T11:58:56.819Z,1.48
2023-05-10T12:01:27.869Z,1.17
2023-05-10T12:03:59.593Z,1.10
2023-05-10T12:06:32.305Z,1.23
2023-05-10T12:09:00.224Z,0.90
2023-05-10T12:11:29.568Z,1.00
2023-05-10T12:13:57.539Z,1.27
2023-05-10T12:16:26.879Z,1.40
2023-05-10T12:18:57.155Z,1.08
2023-05-10T12:21:24.889Z,1.40
2023-05-10T12:23:53.622Z,1.52
2023-05-10T12:26:27.608Z,1.83
2023-05-10T12:28:55.717Z,1.50
2023-05-10T12:31:23.663Z,1.52
2023-05-10T12:33:51.135Z,1.70
2023-05-10T12:36:19.043Z,1.70
2023-05-10T12:38:49.328Z,2.08
2023-05-10T12:41:18.172Z,2.22
2023-05-10T12:43:46.638Z,2.20
2023-05-10T12:46:15.450Z,2.05
2023-05-10T12:48:43.840Z,2.40
2023-05-10T12:51:13.323Z,1.75
2023-05-10T12:53:42.733Z,1.40
2023-05-10T12:56:12.304Z,1.60
2023-05-10T12:58:39.687Z,1.90
2023-05-10T13:01:35.048Z,1.50
2023-05-10T13:06:30.555Z,1.90
2023-05-10T13:08:58.714Z,1.70
2023-05-10T13:11:26.447Z,2.15
2023-05-10T13:13:54.080Z,1.92
2023-05-10T13:16:21.670Z,1.90
2023-05-10T13:18:49.479Z,2.05
2023-05-10T13:21:17.703Z,2.60
2023-05-10T13:23:45.227Z,2.53
2023-05-10T13:26:12.749Z,2.40
2023-05-10T13:28:40.377Z,2.80
2023-05-10T13:31:08.851Z,3.05
2023-05-10T13:33:36.690Z,3.05
2023-05-10T13:36:04.560Z,2.72
2023-05-10T13:38:32.594Z,2.80
2023-05-10T13:41:00.192Z,2.50
2023-05-10T13:43:28.231Z,2.55
2023-05-10T13:45:56.000Z,2.90
2023-05-10T13:48:23.776Z,2.80
2023-05-10T13:50:51.323Z,2.28
2023-05-10T13:53:19.496Z,2.20
2023-05-10T13:56:37.701Z,2.15
2023-05-10T13:59:05.386Z,2.35
2023-05-10T14:01:33.081Z,2.38
2023-05-10T14:04:01.354Z,2.97
2023-05-10T14:06:29.329Z,2.10
2023-05-10T14:08:57.504Z,3.70
2023-05-10T14:11:25.147Z,3.70
2023-05-10T14:13:52.717Z,2.15
2023-05-10T14:16:21.347Z,1.90
2023-05-10T14:18:49.019Z,1.70
2023-05-10T14:21:16.746Z,1.77
2023-05-10T14:23:44.711Z,1.77
2023-05-10T14:26:12.452Z,2.13
2023-05-10T14:28:40.115Z,2.00
2023-05-10T14:31:07.769Z,1.88
2023-05-10T14:33:35.996Z,2.33
2023-05-10T14:36:04.635Z,2.17
2023-05-10T14:38:32.372Z,1.90
2023-05-10T14:40:59.896Z,1.85
2023-05-10T14:43:29.164Z,1.98
2023-05-10T14:45:56.993Z,1.80
2023-05-10T14:48:24.519Z,1.80
2023-05-10T14:50:53.566Z,2.08
2023-05-10T14:53:46.841Z,1.55
2023-05-10T14:56:14.510Z,1.80
2023-05-10T14:58:42.348Z,1.48
2023-05-10T15:01:09.900Z,1.67
2023-05-10T15:03:38.178Z,1.55
2023-05-10T15:06:06.858Z,1.60
2023-05-10T15:08:34.505Z,1.70
2023-05-10T15:11:02.539Z,1.90
2023-05-10T15:13:30.132Z,2.20
2023-05-10T15:15:57.979Z,2.08
2023-05-10T15:18:25.734Z,2.50
2023-05-10T15:20:53.379Z,2.92
2023-05-10T15:23:20.906Z,2.03
2023-05-10T15:25:50.585Z,2.28
2023-05-10T15:28:18.460Z,2.42
2023-05-10T15:30:46.142Z,2.05
2023-05-10T15:33:13.934Z,2.10
2023-05-10T15:35:42.184Z,2.00
2023-05-10T15:38:10.767Z,2.60
2023-05-10T15:40:38.382Z,2.30
2023-05-10T15:43:08.975Z,2.60
2023-05-10T15:45:37.748Z,2.30
2023-05-10T15:48:05.661Z,2.17
2023-05-10T15:50:33.313Z,2.20
2023-05-10T15:53:01.112Z,1.70
2023-05-10T15:55:29.015Z,1.83
2023-05-10T15:57:56.632Z,1.60
2023-05-10T16:00:24.374Z,1.95
2023-05-10T16:02:54.184Z,2.03
2023-05-10T16:05:22.641Z,2.10
2023-05-10T16:07:50.409Z,1.88
2023-05-10T16:10:18.048Z,1.95
2023-05-10T16:12:45.916Z,2.03
2023-05-10T16:15:13.589Z,1.50
2023-05-10T16:17:41.943Z,1.88
2023-05-10T16:20:10.117Z,1.55
2023-05-10T16:22:37.708Z,1.55
2023-05-10T16:25:06.326Z,1.83
2023-05-10T16:27:34.205Z,1.70
2023-05-10T16:30:02.246Z,1.73
2023-05-10T16:32:30.558Z,2.42
2023-05-10T16:34:59.119Z,1.70
2023-05-10T16:37:26.803Z,1.77
2023-05-10T16:39:54.353Z,1.85
2023-05-10T16:42:22.033Z,1.70
2023-05-10T16:44:49.745Z,2.20
2023-05-10T16:47:17.384Z,2.00
2023-05-10T16:49:45.037Z,2.10
2023-05-10T16:52:12.622Z,2.40
2023-05-10T16:54:40.344Z,1.98
2023-05-10T16:57:08.669Z,2.20
2023-05-10T16:59:36.481Z,2.70
2023-05-10T17:02:04.169Z,2.08
2023-05-10T17:04:31.976Z,2.20
2023-05-10T17:06:59.541Z,2.33
2023-05-10T17:09:27.562Z,1.85
2023-05-10T17:11:55.713Z,2.20
2023-05-10T17:14:23.476Z,2.35
2023-05-10T17:16:52.862Z,2.30
2023-05-10T17:19:20.645Z,2.53
2023-05-10T17:21:48.225Z,2.08
2023-05-10T17:24:15.877Z,3.08
2023-05-10T17:26:43.560Z,3.00
2023-05-10T17:29:11.362Z,2.35
2023-05-10T17:31:39.299Z,2.00
2023-05-10T17:34:07.027Z,3.20
2023-05-10T17:36:34.609Z,2.97
2023-05-10T17:39:02.210Z,2.88
2023-05-10T17:41:29.818Z,3.25
2023-05-10T17:43:57.791Z,3.53
2023-05-10T17:46:25.557Z,3.40
2023-05-10T17:48:53.475Z,3.75
2023-05-10T17:51:21.185Z,4.05
2023-05-10T17:53:48.954Z,5.78
2023-05-10T17:56:16.730Z,5.20
2023-05-10T17:58:44.465Z,5.43
2023-05-10T18:01:12.233Z,7.13
2023-05-10T18:03:40.183Z,5.82
2023-05-10T18:06:07.776Z,5.80
2023-05-10T18:08:35.639Z,6.18
2023-05-10T18:11:03.299Z,6.28
2023-05-10T18:13:31.022Z,5.72
2023-05-10T18:15:58.581Z,6.00
2023-05-10T18:18:26.474Z,6.78
2023-05-10T18:20:56.831Z,6.25
2023-05-10T18:23:24.729Z,6.00
2023-05-10T18:25:52.557Z,5.85
2023-05-10T18:28:20.148Z,6.10
2023-05-10T18:30:47.904Z,7.20
2023-05-10T18:33:16.080Z,7.93
2023-05-10T18:35:43.674Z,7.20
2023-05-10T18:38:12.618Z,7.13
2023-05-10T18:40:41.004Z,7.05
2023-05-10T18:43:09.118Z,7.22
2023-05-10T18:45:36.783Z,8.85
2023-05-10T18:48:04.630Z,10.70
2023-05-10T18:50:32.872Z,10.32
2023-05-10T18:53:00.413Z,11.32
2023-05-10T18:55:28.498Z,9.75
2023-05-10T18:57:56.414Z,10.02
2023-05-10T19:00:24.209Z,12.65
2023-05-10T19:02:53.675Z,12.40
2023-05-10T19:05:21.410Z,11.52
2023-05-10T19:07:49.053Z,12.50
2023-05-10T19:10:16.734Z,11.15
2023-05-10T19:12:44.380Z,12.75
2023-05-10T19:15:12.159Z,10.57
2023-05-10T19:17:41.346Z,11.43
2023-05-10T19:20:11.422Z,11.25
2023-05-10T19:22:54.186Z,12.85
2023-05-10T19:25:29.497Z,13.27
2023-05-10T19:27:59.945Z,13.60
2023-05-10T19:30:30.506Z,13.40
2023-05-10T19:32:58.440Z,12.45
2023-05-10T19:35:26.114Z,14.68
2023-05-10T19:37:53.650Z,13.38
2023-05-10T19:40:21.289Z,13.38
2023-05-10T19:42:48.830Z,12.32
2023-05-10T19:45:16.925Z,11.32
2023-05-10T19:47:45.166Z,10.88
2023-05-10T19:50:12.969Z,11.32
2023-05-10T19:52:41.124Z,10.43
2023-05-10T19:55:10.233Z,11.93
2023-05-10T19:57:38.490Z,15.75
2023-05-10T20:00:10.602Z,14.60
2023-05-10T20:02:41.750Z,13.98
2023-05-10T20:05:10.320Z,13.25
2023-05-10T20:07:38.598Z,14.15
2023-05-10T20:10:07.343Z,15.02
2023-05-10T20:12:37.373Z,13.13
2023-05-10T20:15:07.567Z,11.20
2023-05-10T20:17:35.613Z,11.13
2023-05-10T20:20:03.981Z,10.77
2023-05-10T20:22:33.261Z,8.98
2023-05-10T20:25:00.784Z,9.50
2023-05-10T20:27:28.603Z,8.75
2023-05-10T20:29:56.595Z,8.65
2023-05-10T20:32:24.111Z,8.75
2023-05-10T20:34:51.952Z,8.05
2023-05-10T20:37:19.695Z,8.15
2023-05-10T20:39:49.807Z,8.40
2023-05-10T20:42:18.068Z,7.60
2023-05-10T20:44:45.565Z,7.40
2023-05-10T20:47:14.689Z,7.57
2023-05-10T20:49:42.883Z,7.18
2023-05-10T20:52:13.137Z,6.93
2023-05-10T20:54:40.709Z,7.05
2023-05-10T20:57:08.215Z,7.38
2023-05-10T20:59:35.938Z,7.20
2023-05-10T21:02:03.495Z,8.35
2023-05-10T21:04:31.168Z,9.18
2023-05-10T21:06:58.832Z,9.73
2023-05-10T21:09:26.710Z,9.35
2023-05-10T21:11:55.016Z,8.70
2023-05-10T21:14:22.521Z,9.60
2023-05-10T21:16:51.344Z,7.65
2023-05-10T21:19:19.034Z,7.63
2023-05-10T21:21:46.581Z,8.10
2023-05-10T21:24:14.093Z,7.60
2023-05-10T21:26:42.083Z,7.38
2023-05-10T21:29:09.453Z,7.78
2023-05-10T21:31:36.981Z,6.45
2023-05-10T21:34:04.994Z,6.13
2023-05-10T21:36:32.547Z,6.30
2023-05-10T21:39:00.137Z,6.07
2023-05-10T21:41:30.779Z,5.95
2023-05-10T21:44:00.144Z,5.88
2023-05-10T21:46:27.780Z,5.70
2023-05-10T21:48:55.836Z,5.95
2023-05-10T21:51:23.365Z,5.38
2023-05-10T21:53:50.935Z,5.90
2023-05-10T21:56:18.522Z,5.45
2023-05-10T21:58:45.963Z,5.80
2023-05-10T22:01:15.140Z,5.07
2023-05-10T22:03:42.650Z,5.80
2023-05-10T22:06:10.239Z,5.10
2023-05-10T22:08:37.865Z,5.45
2023-05-10T22:11:05.617Z,5.63
2023-05-10T22:13:33.384Z,5.72
2023-05-10T22:16:00.907Z,5.35
2023-05-10T22:18:28.581Z,5.78
2023-05-10T22:20:56.114Z,5.72
2023-05-10T22:23:24.101Z,6.50
2023-05-10T22:25:52.097Z,5.78
2023-05-10T22:28:19.543Z,5.43
2023-05-10T22:30:48.312Z,5.95
2023-05-10T22:33:15.898Z,7.03
2023-05-10T22:35:43.429Z,8.80
2023-05-10T22:38:11.185Z,9.57
2023-05-10T22:40:39.391Z,9.05
2023-05-10T22:43:07.068Z,9.05
2023-05-10T22:45:35.207Z,8.95
2023-05-10T22:48:05.268Z,8.88
2023-05-10T22:50:33.131Z,8.88
2023-05-10T22:53:00.443Z,9.07
2023-05-10T22:55:27.934Z,8.88
2023-05-10T22:57:55.305Z,8.82
2023-05-10T23:00:22.997Z,9.43
2023-05-10T23:02:50.595Z,9.05
2023-05-10T23:05:18.307Z,9.82
2023-05-10T23:07:48.438Z,9.40
2023-05-10T23:10:16.358Z,10.00
2023-05-10T23:12:44.034Z,9.73
2023-05-10T23:15:11.915Z,10.82
2023-05-10T23:17:39.657Z,11.38
2023-05-10T23:20:07.758Z,10.35
2023-05-10T23:22:36.171Z,9.90
2023-05-10T23:25:03.918Z,10.77
2023-05-10T23:27:32.031Z,10.32
2023-05-10T23:29:59.526Z,9.45
2023-05-10T23:32:27.218Z,9.93
2023-05-10T23:34:54.815Z,9.63
2023-05-10T23:37:22.370Z,8.85
2023-05-10T23:39:49.948Z,10.02
2023-05-10T23:42:17.408Z,10.15
2023-05-10T23:44:44.834Z,10.40
2023-05-10T23:47:12.769Z,11.35
2023-05-10T23:49:42.290Z,10.95
2023-05-10T23:52:09.955Z,10.50
2023-05-10T23:54:37.529Z,10.70
2023-05-10T23:57:05.094Z,12.73
2023-05-10T23:59:33.318Z,13.02
